"WATCHING THE WEATHER TO PROTECT LIFE AND PROPERTY"


THERE ARE CURRENTLY NO WATCHES NOR WARNINGS


Aviation
Satellite (InfraRed)


TNCA 262200Z 07017KT 9999 FEW022 27/21 Q1012 NOSIG
TNCB 262155Z 06014KT 9999 FEW015 SCT021 26/22 Q1012
TNCC 262200Z 07015KT 9999 VCSH FEW018 OVC030 25/22 Q1013 TEMPO 5000 SHRA FEW016TCU
TNCM 262200Z 06006KT 9999 FEW018 25/19 Q1017 NOSIG